Time;durP1;ratioP1;P1;durP2;ratioP2;P2;SDS_P1;SDS_P2;PMS_P1;PMS_P2;Temp;Humidity;BMP_temperature;BMP_pressure;BME280_temperature;BME280_humidity;BME280_pressure;Samples;Min_cycle;Max_cycle;Signal;HPM_P1;HPM_P2
2021/12/09 00:00:50;;;;;;;24.92;17.98;;;2.80;84.10;;;0.53;98.43;94492.06;4938437;28;20090;-74
2021/12/09 00:03:15;;;;;;;;;;;2.80;84.30;;;0.50;99.21;94482.03;4938700;28;20134;-74
2021/12/09 00:05:43;;;;;;;24.77;17.13;;;2.80;84.40;;;0.50;98.27;94492.38;4956553;28;19918;-74
2021/12/09 00:08:09;;;;;;;23.20;17.55;;;2.70;84.60;;;0.49;99.09;94501.13;4953301;28;20050;-73
2021/12/09 00:10:35;;;;;;;24.42;17.42;;;2.80;84.50;;;0.53;99.01;94511.94;4950932;28;20052;-71
2021/12/09 00:13:02;;;;;;;25.40;18.42;;;2.90;84.40;;;0.52;98.56;94516.31;4953941;28;20521;-73
2021/12/09 00:15:28;;;;;;;25.48;18.08;;;2.80;84.40;;;0.52;98.90;94531.81;4925947;29;20070;-74
2021/12/09 00:17:53;;;;;;;26.90;18.17;;;2.80;84.50;;;0.51;98.54;94530.22;4928624;28;20502;-74
2021/12/09 00:20:19;;;;;;;25.17;18.02;;;2.60;84.70;;;0.48;98.88;94537.50;4954083;28;20066;-73
2021/12/09 00:22:46;;;;;;;29.90;20.23;;;2.70;85.20;;;0.47;98.56;94533.31;4950802;28;20046;-74
2021/12/09 00:25:11;;;;;;;25.98;17.30;;;2.60;85.10;;;0.47;98.70;94538.47;4940064;28;20391;-74
2021/12/09 00:27:37;;;;;;;28.77;19.63;;;2.70;85.30;;;0.47;98.73;94528.94;4949048;28;20106;-73
2021/12/09 00:30:07;;;;;;;28.58;19.02;;;2.70;85.10;;;0.47;99.01;94523.75;4983242;28;20089;-74
2021/12/09 00:32:33;;;;;;;30.50;19.58;;;2.70;85.00;;;0.48;98.86;94519.41;4940130;28;20115;-73
2021/12/09 00:34:58;;;;;;;25.88;18.63;;;2.70;84.80;;;0.49;98.95;94521.00;4968360;28;20066;-73
2021/12/09 00:37:32;;;;;;;28.85;18.55;;;2.70;85.00;;;0.50;99.03;94526.00;4964075;28;20031;-73
2021/12/09 00:39:57;;;;;;;28.80;18.42;;;2.70;84.70;;;0.49;99.02;94527.00;4936802;28;20060;-74
2021/12/09 00:42:24;;;;;;;29.95;19.13;;;2.80;84.90;;;0.50;98.99;94518.25;4962971;28;20102;-74
2021/12/09 00:44:50;;;;;;;28.75;19.60;;;2.80;84.80;;;0.51;99.38;94509.53;4943908;28;20455;-74
2021/12/09 00:47:16;;;;;;;27.55;18.77;;;2.80;84.90;;;0.54;99.86;94519.53;4951834;28;20479;-74
2021/12/09 00:49:42;;;;;;;28.90;19.00;;;2.80;84.80;;;0.53;99.65;94533.44;4956349;28;20042;-74
2021/12/09 00:52:07;;;;;;;28.83;18.52;;;2.80;85.00;;;0.54;98.75;94536.84;4969264;28;20502;-73
2021/12/09 00:54:33;;;;;;;27.73;18.65;;;2.80;84.90;;;0.55;99.09;94536.66;4967041;28;20517;-74
2021/12/09 00:56:59;;;;;;;31.27;19.58;;;2.80;84.80;;;0.56;99.51;94535.69;4950134;28;20054;-73
2021/12/09 00:59:25;;;;;;;32.38;20.10;;;2.80;84.70;;;0.57;98.86;94544.25;4960463;28;20035;-74
2021/12/09 01:01:51;;;;;;;33.50;20.27;;;2.80;84.60;;;0.57;98.65;94539.09;4966030;28;20418;-74
2021/12/09 01:04:17;;;;;;;31.75;19.15;;;2.80;84.60;;;0.57;98.83;94544.25;4964321;28;20043;-73
2021/12/09 01:06:42;;;;;;;31.50;20.05;;;2.70;84.70;;;0.57;99.61;94545.06;4971909;28;20619;-75
2021/12/09 01:09:08;;;;;;;28.55;17.73;;;2.80;84.80;;;0.56;98.88;94543.44;4953405;28;20459;-74
2021/12/09 01:11:34;;;;;;;29.55;17.75;;;2.70;85.10;;;0.56;99.34;94547.81;4959042;28;20089;-74
2021/12/09 01:13:59;;;;;;;26.98;17.98;;;2.80;84.70;;;0.56;99.40;94546.03;4967185;28;20031;-73
2021/12/09 01:16:25;;;;;;;28.55;17.75;;;2.70;84.80;;;0.55;99.32;94548.78;4963008;28;20453;-73
2021/12/09 01:18:51;;;;;;;25.85;16.95;;;2.70;84.90;;;0.55;98.91;94559.94;4933753;28;20114;-74
2021/12/09 01:21:17;;;;;;;25.73;17.17;;;2.70;84.90;;;0.54;99.02;94571.28;4932575;28;20105;-74
2021/12/09 01:23:42;;;;;;;26.40;17.42;;;2.70;85.10;;;0.56;99.04;94584.03;4949951;28;20076;-73
2021/12/09 01:26:09;;;;;;;26.08;17.42;;;2.80;85.00;;;0.57;98.89;94581.28;4935460;28;20038;-73
2021/12/09 01:29:01;;;;;;;23.45;15.75;;;2.80;84.80;;;0.58;99.02;94569.97;4962643;28;20426;-72
2021/12/09 01:31:29;;;;;;;24.35;16.45;;;2.80;84.70;;;0.56;99.51;94569.31;4954019;28;20125;-73
2021/12/09 01:34:00;;;;;;;25.10;16.70;;;2.80;85.00;;;0.55;99.21;94553.97;4935120;28;20414;-73
2021/12/09 01:36:26;;;;;;;;;;;2.70;85.30;;;0.53;100.00;94541.19;4970534;28;20090;-74
2021/12/09 01:38:52;;;;;;;23.73;15.85;;;2.80;85.00;;;0.54;99.31;94526.47;4965883;28;19918;-75
2021/12/09 01:41:17;;;;;;;23.35;16.40;;;2.80;84.90;;;0.56;99.96;94527.13;4967998;28;20506;-73
2021/12/09 01:43:44;;;;;;;23.65;15.65;;;2.80;84.70;;;0.54;99.69;94529.06;4943281;28;20422;-74
2021/12/09 01:46:13;;;;;;;22.73;15.82;;;2.80;84.80;;;0.55;99.24;94539.25;4965753;28;20043;-74
2021/12/09 01:48:40;;;;;;;23.25;15.07;;;2.80;84.70;;;0.55;99.33;94541.03;4957704;28;20126;-73
2021/12/09 01:51:06;;;;;;;20.60;14.57;;;2.90;84.80;;;0.53;99.70;94536.03;4954433;28;20533;-72
2021/12/09 01:53:32;;;;;;;20.35;14.18;;;2.80;84.60;;;0.56;99.64;94553.00;4938811;28;20522;-73
2021/12/09 01:56:00;;;;;;;21.67;14.38;;;2.80;84.80;;;0.56;99.74;94555.56;4954797;28;20058;-73
2021/12/09 01:58:25;;;;;;;20.52;14.18;;;2.80;84.90;;;0.57;99.54;94570.13;4964311;28;20051;-73
2021/12/09 02:00:51;;;;;;;20.52;14.88;;;2.80;84.80;;;0.58;99.18;94571.75;4942684;28;20039;-73
2021/12/09 02:03:17;;;;;;;19.25;13.70;;;2.80;84.80;;;0.57;99.99;94581.28;4960911;28;20042;-73
2021/12/09 02:05:43;;;;;;;19.83;13.45;;;2.80;84.70;;;0.58;99.70;94577.72;4954005;28;20049;-74
2021/12/09 02:08:12;;;;;;;19.27;14.18;;;2.90;84.80;;;0.58;99.53;94579.50;4950888;28;20042;-74
2021/12/09 02:10:37;;;;;;;19.10;14.18;;;2.90;84.70;;;0.57;99.66;94576.09;4938825;28;20415;-73
2021/12/09 02:13:03;;;;;;;18.77;13.68;;;2.90;84.90;;;0.60;100.00;94580.13;4944257;28;20050;-74
2021/12/09 02:15:29;;;;;;;18.35;12.90;;;2.90;84.80;;;0.60;99.45;94580.13;4950294;28;20521;-74
2021/12/09 02:17:56;;;;;;;19.77;13.25;;;2.90;84.60;;;0.61;99.36;94592.91;4970352;28;20117;-74
2021/12/09 02:20:27;;;;;;;19.25;13.20;;;2.90;84.60;;;0.61;99.70;94603.25;4956135;28;20402;-74
2021/12/09 02:22:53;;;;;;;17.75;12.45;;;2.90;84.60;;;0.60;100.00;94604.22;4971075;28;20038;-74
2021/12/09 02:25:19;;;;;;;18.17;12.38;;;2.80;84.70;;;0.59;99.49;94594.84;4969315;28;20443;-74
2021/12/09 02:27:45;;;;;;;16.15;11.48;;;2.80;84.80;;;0.60;99.61;94598.25;4937425;28;20055;-74
2021/12/09 02:30:11;;;;;;;17.27;12.07;;;2.80;84.90;;;0.59;99.71;94584.50;4972201;28;20031;-75
2021/12/09 02:32:37;;;;;;;15.85;11.13;;;2.80;84.80;;;0.58;99.81;94588.06;4954658;28;20030;-74
2021/12/09 02:35:03;;;;;;;16.70;11.52;;;2.70;85.10;;;0.57;99.51;94590.81;4953707;28;20042;-73
2021/12/09 02:37:29;;;;;;;13.50;10.40;;;2.80;84.70;;;0.58;99.36;94588.06;4952700;28;20031;-73
2021/12/09 02:39:56;;;;;;;14.40;10.07;;;2.80;84.90;;;0.56;99.29;94584.03;4953037;28;20094;-72
2021/12/09 02:42:24;;;;;;;13.70;9.65;;;2.70;84.50;;;0.55;99.43;94593.56;4962792;28;20031;-73
2021/12/09 02:44:50;;;;;;;11.45;9.02;;;2.60;85.20;;;0.56;99.57;94584.84;4954495;28;21500;-73
2021/12/09 02:47:16;;;;;;;11.70;9.10;;;2.70;84.80;;;0.56;99.39;94578.84;4936955;28;20051;-73
2021/12/09 02:49:41;;;;;;;12.57;9.98;;;2.70;84.70;;;0.54;99.38;94581.63;4939263;28;20032;-73
2021/12/09 02:52:08;;;;;;;11.95;8.95;;;2.70;85.10;;;0.53;99.24;94574.03;4952846;28;20066;-73
2021/12/09 02:54:33;;;;;;;11.00;9.13;;;2.60;84.80;;;0.47;99.04;94564.34;4941981;28;20027;-74
2021/12/09 02:57:03;;;;;;;12.25;9.20;;;2.40;85.60;;;0.44;99.43;94565.44;4952122;28;20082;-74
2021/12/09 02:59:29;;;;;;;11.48;9.20;;;2.40;85.70;;;0.44;99.16;94569.81;4957925;28;20038;-74
2021/12/09 03:01:57;;;;;;;11.90;9.20;;;2.50;85.60;;;0.44;98.78;94570.63;4954504;28;20031;-72
2021/12/09 03:04:41;;;;;;;12.55;9.75;;;2.50;85.20;;;0.43;99.71;94581.13;4970459;28;20118;-74
2021/12/09 03:07:18;;;;;;;11.98;9.07;;;2.50;85.40;;;0.43;99.76;94578.56;4970733;28;20122;-75
2021/12/09 03:09:52;;;;;;;11.70;9.50;;;2.50;85.30;;;0.42;99.42;94589.88;4939530;28;20031;-75
2021/12/09 03:12:21;;;;;;;11.25;8.80;;;2.50;85.40;;;0.43;99.61;94594.88;4968520;28;20109;-71
2021/12/09 03:14:47;;;;;;;11.10;8.93;;;2.60;85.40;;;0.42;99.77;94597.63;4958374;28;20034;-71
2021/12/09 03:17:12;;;;;;;11.63;9.18;;;2.60;85.40;;;0.43;99.73;94600.03;4964756;28;20054;-69
2021/12/09 03:19:38;;;;;;;11.65;8.68;;;2.60;85.30;;;0.44;100.00;94600.84;4955070;28;20499;-68
2021/12/09 03:22:04;;;;;;;24.48;19.48;;;2.60;85.20;;;0.44;99.49;94606.84;4967053;28;20073;-68
2021/12/09 03:24:30;;;;;;;32.00;22.30;;;2.70;85.20;;;0.49;99.47;94624.47;4968955;28;20049;-68
2021/12/09 03:26:57;;;;;;;18.63;13.57;;;2.70;85.20;;;0.48;100.00;94618.50;4954045;28;20122;-69
2021/12/09 03:29:27;;;;;;;14.98;11.40;;;2.70;85.00;;;0.49;99.92;94619.31;4968337;28;20041;-70
2021/12/09 03:31:54;;;;;;;12.07;9.02;;;2.70;85.00;;;0.49;99.90;94627.88;4967280;28;20057;-72
2021/12/09 03:34:22;;;;;;;11.75;8.93;;;2.70;84.90;;;0.49;99.65;94629.66;4959923;28;20038;-73
2021/12/09 03:36:49;;;;;;;12.20;9.07;;;2.70;85.00;;;0.47;99.69;94629.00;4957733;28;20042;-74
2021/12/09 03:39:18;;;;;;;11.70;8.82;;;2.60;85.20;;;0.46;99.66;94630.78;4973817;28;20053;-73
2021/12/09 03:41:46;;;;;;;12.57;9.85;;;2.60;85.10;;;0.46;99.78;94638.53;4944128;28;20041;-73
2021/12/09 03:44:12;;;;;;;10.93;8.80;;;2.60;85.20;;;0.47;99.59;94636.75;4957689;28;20038;-74
2021/12/09 03:46:38;;;;;;;10.77;8.63;;;2.70;85.10;;;0.49;99.53;94645.16;4935009;28;20090;-74
2021/12/09 03:49:04;;;;;;;12.18;9.32;;;2.70;85.10;;;0.49;99.46;94635.63;4935973;28;20507;-74
2021/12/09 03:51:30;;;;;;;12.50;9.48;;;2.80;85.00;;;0.51;99.49;94638.84;4971710;28;20039;-74
2021/12/09 03:53:56;;;;;;;11.93;9.18;;;2.80;84.90;;;0.52;99.92;94650.81;4952905;28;20039;-73
2021/12/09 03:56:21;;;;;;;20.55;14.35;;;2.80;84.70;;;0.52;99.46;94643.06;4963220;28;20062;-73
2021/12/09 03:58:47;;;;;;;14.77;10.60;;;2.80;84.60;;;0.52;99.63;94634.50;4967128;28;20039;-73
2021/12/09 04:01:13;;;;;;;13.55;8.35;;;2.80;84.60;;;0.51;100.00;94631.09;4954666;28;20054;-73
2021/12/09 04:03:39;;;;;;;11.15;8.75;;;2.70;84.80;;;0.50;99.44;94632.06;4954228;28;20063;-73
2021/12/09 04:06:05;;;;;;;12.13;8.50;;;2.70;85.00;;;0.48;100.00;94628.84;4946000;28;20042;-74
2021/12/09 04:08:31;;;;;;;11.40;8.30;;;2.80;84.80;;;0.50;99.50;94641.59;4950661;28;20039;-75
2021/12/09 04:10:56;;;;;;;11.13;8.88;;;2.70;84.80;;;0.49;99.73;94645.97;4963942;28;20062;-74
2021/12/09 04:13:22;;;;;;;12.77;9.98;;;2.70;84.80;;;0.49;99.65;94660.69;4960903;28;20034;-75
2021/12/09 04:15:48;;;;;;;20.20;14.77;;;2.70;85.10;;;0.49;99.80;94656.31;4938154;28;20071;-74
2021/12/09 04:18:14;;;;;;;15.55;11.45;;;2.80;85.20;;;0.51;100.00;94664.72;4954636;28;20031;-76
2021/12/09 04:20:39;;;;;;;20.50;15.55;;;2.80;85.20;;;0.53;99.83;94660.19;4934675;28;20570;-75
2021/12/09 04:23:05;;;;;;;14.85;11.02;;;2.90;84.90;;;0.54;100.00;94659.22;4952091;28;20074;-73
2021/12/09 04:25:31;;;;;;;43.42;29.25;;;2.80;85.00;;;0.55;100.00;94666.00;4958698;28;20030;-73
2021/12/09 04:27:57;;;;;;;44.35;31.17;;;2.80;84.90;;;0.56;100.00;94665.03;4938374;28;20039;-71
2021/12/09 04:30:24;;;;;;;20.60;15.13;;;2.80;84.90;;;0.55;100.00;94660.84;4953919;28;20039;-74
2021/12/09 04:32:52;;;;;;;13.25;10.30;;;2.90;84.80;;;0.58;99.99;94662.28;4949976;28;20039;-73
2021/12/09 04:35:18;;;;;;;12.68;9.45;;;2.90;84.50;;;0.56;99.73;94667.63;4951356;28;20091;-71
2021/12/09 04:37:44;;;;;;;11.65;8.68;;;2.80;84.50;;;0.57;99.45;94664.06;4950882;28;20062;-70
2021/12/09 04:40:11;;;;;;;11.05;8.18;;;2.80;84.40;;;0.57;99.49;94663.25;4937973;28;20411;-69
2021/12/09 04:42:37;;;;;;;10.93;8.27;;;2.80;84.50;;;0.57;99.01;94653.72;4952877;28;20039;-72
2021/12/09 04:45:04;;;;;;;11.52;9.05;;;2.90;84.50;;;0.57;99.85;94648.53;4964908;28;20134;-76
2021/12/09 04:47:30;;;;;;;10.75;8.68;;;2.90;84.30;;;0.58;99.17;94655.34;4960692;28;20027;-76
2021/12/09 04:49:56;;;;;;;11.90;8.73;;;2.90;84.30;;;0.57;100.00;94645.97;4931039;28;20104;-77
2021/12/09 04:52:21;;;;;;;11.82;8.88;;;2.90;84.10;;;0.58;99.51;94655.34;4939190;28;20507;-78
2021/12/09 04:54:47;;;;;;;11.18;8.60;;;2.90;84.30;;;0.57;99.27;94658.91;4952732;28;20061;-76
2021/12/09 04:57:14;;;;;;;11.43;8.88;;;2.70;84.30;;;0.55;99.13;94660.84;4967066;28;20027;-76
2021/12/09 04:59:40;;;;;;;12.68;8.82;;;2.80;84.30;;;0.55;99.70;94665.19;4966825;28;20420;-76
2021/12/09 05:02:11;;;;;;;11.23;8.43;;;2.90;84.30;;;0.54;99.67;94666.97;4966905;28;20142;-76
2021/12/09 05:04:36;;;;;;;12.85;8.98;;;2.80;84.60;;;0.53;99.75;94667.16;4967880;28;20122;-73
2021/12/09 05:07:02;;;;;;;11.93;8.50;;;2.80;84.40;;;0.53;99.56;94672.31;4963898;28;20073;-76
2021/12/09 05:09:29;;;;;;;12.70;9.20;;;2.80;84.60;;;0.52;99.84;94676.69;4969094;28;20046;-76
2021/12/09 05:11:55;;;;;;;12.70;8.93;;;2.80;84.50;;;0.53;99.02;94682.66;4957486;28;20101;-76
2021/12/09 05:14:22;;;;;;;11.45;8.95;;;2.80;84.40;;;0.51;99.92;94685.41;4969734;28;20035;-76
2021/12/09 05:16:52;;;;;;;11.65;8.75;;;2.70;84.60;;;0.51;99.16;94682.03;4937782;28;20474;-77
2021/12/09 05:19:19;;;;;;;10.80;8.18;;;2.70;84.70;;;0.50;98.75;94691.56;4970471;28;20030;-75
2021/12/09 05:21:45;;;;;;;10.13;7.80;;;2.60;84.80;;;0.50;99.39;94699.31;4953736;28;20093;-76
2021/12/09 05:24:12;;;;;;;11.85;8.38;;;2.70;84.70;;;0.49;99.13;94697.72;4939237;28;20074;-75
2021/12/09 05:26:44;;;;;;;11.50;8.63;;;2.60;84.70;;;0.48;99.60;94701.25;4934321;28;20418;-76
2021/12/09 05:29:11;;;;;;;11.20;7.72;;;2.70;84.70;;;0.47;99.07;94699.66;4958412;28;20126;-77
2021/12/09 05:34:21;;;;;;;14.35;9.35;;;2.70;84.60;;;0.45;100.00;94709.31;4970232;28;20065;-76
2021/12/09 05:36:47;;;;;;;12.13;8.77;;;2.60;85.00;;;0.45;99.37;94719.66;4969222;28;20031;-76
2021/12/09 05:39:13;;;;;;;12.40;8.32;;;2.60;84.80;;;0.45;98.81;94732.59;4954153;28;20047;-76
2021/12/09 05:41:39;;;;;;;10.35;7.70;;;2.70;84.70;;;0.47;99.91;94740.22;4977797;28;20085;-77
2021/12/09 05:44:05;;;;;;;10.77;7.78;;;2.70;84.60;;;0.46;99.17;94743.78;4949418;28;20051;-76
2021/12/09 05:46:33;;;;;;;10.57;7.78;;;2.70;84.50;;;0.49;99.60;94748.63;4934795;28;20043;-76
2021/12/09 05:48:59;;;;;;;11.02;8.43;;;2.80;84.50;;;0.50;99.25;94756.22;4941513;28;20376;-75
2021/12/09 05:51:25;;;;;;;10.65;7.75;;;2.80;84.40;;;0.49;99.11;94761.56;4951984;28;20102;-77
2021/12/09 05:53:51;;;;;;;21.30;13.93;;;2.80;84.40;;;0.50;99.21;94771.75;4966129;28;20058;-77
2021/12/09 05:56:17;;;;;;;15.30;10.30;;;2.80;84.60;;;0.51;99.04;94768.19;4954058;28;20050;-75
2021/12/09 05:58:43;;;;;;;17.92;12.48;;;2.80;84.40;;;0.53;100.00;94771.44;4952887;28;20070;-75
2021/12/09 06:01:08;;;;;;;19.75;13.73;;;2.80;84.70;;;0.56;99.62;94780.66;4953737;28;20034;-73
2021/12/09 06:03:34;;;;;;;26.80;19.38;;;2.90;84.70;;;0.58;100.00;94783.88;4937370;28;20154;-74
2021/12/09 06:06:00;;;;;;;26.02;18.85;;;2.90;84.70;;;0.60;99.82;94787.13;4980859;28;20058;-73
2021/12/09 06:08:26;;;;;;;15.00;10.13;;;3.00;84.50;;;0.61;99.64;94781.78;4973579;28;20054;-76
2021/12/09 06:10:52;;;;;;;12.02;8.88;;;2.90;84.20;;;0.62;99.50;94780.00;4972563;28;20035;-74
2021/12/09 06:13:18;;;;;;;10.23;8.35;;;3.00;84.10;;;0.63;99.39;94780.81;4944320;28;20038;-74
2021/12/09 06:15:44;;;;;;;11.20;8.50;;;3.00;84.00;;;0.65;99.63;94784.84;4950818;28;20063;-74
2021/12/09 06:18:10;;;;;;;13.77;9.10;;;2.90;84.00;;;0.66;99.60;94790.84;4934800;28;20079;-76
2021/12/09 06:20:35;;;;;;;12.25;9.35;;;3.00;84.10;;;0.68;99.26;94788.88;4918863;28;20039;-73
2021/12/09 06:23:01;;;;;;;13.07;9.90;;;3.00;83.90;;;0.68;99.79;94778.53;4949718;28;20039;-75
2021/12/09 06:25:27;;;;;;;12.40;9.52;;;3.00;84.10;;;0.67;99.99;94779.50;4934577;28;20063;-76
2021/12/09 06:27:54;;;;;;;13.88;9.85;;;3.00;84.10;;;0.66;99.17;94780.47;4966202;28;20065;-75
2021/12/09 06:30:20;;;;;;;12.68;9.82;;;3.00;84.10;;;0.67;99.61;94782.09;4960156;28;20115;-75
2021/12/09 06:32:46;;;;;;;14.77;10.60;;;3.00;84.20;;;0.66;99.21;94781.28;4965595;28;20517;-75
2021/12/09 06:35:12;;;;;;;18.08;12.55;;;3.00;84.00;;;0.68;99.66;94788.88;4957094;28;20027;-76
2021/12/09 06:37:40;;;;;;;17.55;12.88;;;3.00;84.10;;;0.67;99.11;94776.91;4972944;28;20034;-76
2021/12/09 06:40:07;;;;;;;18.80;13.75;;;2.90;84.10;;;0.67;99.18;94782.91;4973026;28;20034;-75
2021/12/09 06:42:33;;;;;;;19.30;14.02;;;3.00;84.30;;;0.68;99.51;94778.53;4972363;28;20042;-76
2021/12/09 06:44:59;;;;;;;25.92;16.33;;;3.00;84.30;;;0.69;99.80;94775.00;4949388;28;20058;-76
2021/12/09 06:47:25;;;;;;;26.55;17.10;;;3.00;84.20;;;0.70;99.39;94774.03;4941160;28;20073;-74
2021/12/09 06:49:50;;;;;;;26.23;18.13;;;3.00;84.30;;;0.68;99.59;94773.38;4956683;28;20058;-76
2021/12/09 06:52:17;;;;;;;25.42;17.25;;;2.90;84.30;;;0.68;99.95;94778.53;4972745;28;20122;-76
2021/12/09 06:54:42;;;;;;;22.30;15.73;;;2.90;84.50;;;0.66;100.00;94775.31;4972190;28;20049;-76
2021/12/09 06:57:08;;;;;;;18.88;14.20;;;3.00;84.40;;;0.68;99.16;94778.53;4956454;28;20039;-75
2021/12/09 06:59:34;;;;;;;18.67;13.95;;;3.00;84.40;;;0.66;100.00;94778.69;4966178;28;20071;-76
2021/12/09 07:02:00;;;;;;;18.85;13.75;;;3.00;84.40;;;0.68;99.41;94773.38;4930545;28;20069;-76
2021/12/09 07:04:26;;;;;;;19.75;13.45;;;2.90;84.30;;;0.67;99.91;94776.91;4940470;28;20055;-75
2021/12/09 07:06:52;;;;;;;17.58;12.43;;;2.90;84.30;;;0.70;99.57;94774.03;4970660;28;20109;-75
2021/12/09 07:09:17;;;;;;;18.77;13.20;;;2.90;84.30;;;0.68;99.54;94778.53;4991652;28;20427;-75
2021/12/09 07:11:51;;;;;;;17.98;13.52;;;3.00;84.30;;;0.68;99.55;94778.53;4959418;28;20553;-77
2021/12/09 07:14:18;;;;;;;17.92;13.10;;;3.00;84.30;;;0.68;99.74;94779.38;4976138;28;20593;-76
2021/12/09 07:16:43;;;;;;;18.95;13.77;;;3.00;84.40;;;0.70;100.00;94782.63;4971551;28;20062;-76
2021/12/09 07:19:09;;;;;;;17.67;13.05;;;3.00;84.20;;;0.69;99.91;94788.75;4956355;28;20572;-76
2021/12/09 07:21:35;;;;;;;19.40;13.68;;;3.00;84.30;;;0.70;99.99;94790.38;4956147;28;20662;-76
2021/12/09 07:24:00;;;;;;;18.33;13.50;;;3.00;84.40;;;0.70;99.49;94786.97;4955992;28;20113;-75
2021/12/09 07:26:28;;;;;;;18.23;13.05;;;2.90;84.30;;;0.70;99.36;94792.16;4956069;28;20042;-76
2021/12/09 07:28:54;;;;;;;18.73;13.45;;;2.90;84.40;;;0.69;99.96;94795.72;4955488;28;20529;-76
2021/12/09 07:31:20;;;;;;;18.08;13.02;;;3.00;84.50;;;0.69;99.42;94795.72;4971835;28;20039;-76
2021/12/09 07:33:46;;;;;;;15.88;11.82;;;3.00;84.40;;;0.70;99.87;94815.44;4952497;28;20515;-74
2021/12/09 07:36:11;;;;;;;17.35;12.25;;;3.00;84.30;;;0.71;100.00;94809.28;4953741;28;20421;-76
2021/12/09 07:38:37;;;;;;;16.80;11.80;;;3.00;85.00;;;0.73;99.48;94817.72;4936879;29;20118;-76
2021/12/09 07:41:03;;;;;;;15.13;11.02;;;2.90;85.10;;;0.74;100.00;94819.31;4920172;29;20059;-77
2021/12/09 07:43:28;;;;;;;13.35;10.40;;;2.90;85.10;;;0.76;100.00;94813.00;4959435;28;20039;-77
2021/12/09 07:45:54;;;;;;;12.30;9.95;;;3.00;85.00;;;0.77;99.96;94819.00;4964382;28;20576;-76
2021/12/09 07:48:20;;;;;;;13.98;10.63;;;3.00;84.90;;;0.81;99.86;94820.28;4974963;28;20085;-76
2021/12/09 07:50:46;;;;;;;13.10;9.45;;;3.10;85.00;;;0.82;99.70;94806.38;4958362;28;20058;-76
2021/12/09 07:53:12;;;;;;;11.77;9.43;;;3.00;84.70;;;0.83;100.00;94803.63;4974738;28;20077;-76
2021/12/09 07:55:37;;;;;;;13.23;9.52;;;3.00;84.90;;;0.87;100.00;94804.13;4989107;28;20034;-75
2021/12/09 07:58:03;;;;;;;11.95;9.45;;;3.10;84.40;;;0.90;99.73;94809.78;4971832;28;20058;-75
2021/12/09 08:00:31;;;;;;;12.20;9.40;;;3.10;84.30;;;0.92;99.75;94807.06;4955276;28;20061;-75
2021/12/09 08:02:57;;;;;;;12.40;9.70;;;3.10;84.30;;;0.92;99.34;94809.63;4955009;28;20030;-75
2021/12/09 08:05:24;;;;;;;13.10;10.48;;;3.10;84.20;;;0.92;99.47;94825.16;4971687;28;20027;-74
2021/12/09 08:07:49;;;;;;;11.27;8.93;;;3.10;84.50;;;0.94;99.48;94828.41;4990745;28;20084;-75
2021/12/09 08:10:16;;;;;;;12.23;9.80;;;3.10;84.00;;;0.92;98.68;94832.94;4962229;28;20031;-76
2021/12/09 08:12:42;;;;;;;12.20;9.60;;;3.10;84.20;;;0.93;99.08;94839.72;4955111;28;20492;-76
2021/12/09 08:15:09;;;;;;;13.20;10.68;;;3.10;84.10;;;0.94;98.91;94840.53;4952241;28;20031;-75
2021/12/09 08:20:15;;;;;;;11.05;9.25;;;3.20;83.90;;;0.92;98.79;94843.28;4952473;28;20028;-76
2021/12/09 08:22:44;;;;;;;22.67;16.75;;;3.10;84.00;;;0.96;99.36;94848.94;4940427;28;20498;-74
2021/12/09 08:25:13;;;;;;;25.98;19.75;;;3.20;83.80;;;0.97;99.26;94855.75;4971607;28;20123;-75
2021/12/09 08:27:45;;;;;;;16.13;12.13;;;3.20;83.80;;;0.96;98.95;94854.94;4950939;28;20406;-77
2021/12/09 08:30:25;;;;;;;22.67;18.48;;;3.10;84.00;;;0.95;98.64;94863.69;4949082;28;20565;-75
2021/12/09 08:33:02;;;;;;;20.35;15.90;;;3.20;83.80;;;0.98;99.02;94875.47;4963415;28;20046;-77
2021/12/09 08:35:33;;;;;;;13.90;10.98;;;3.20;83.70;;;0.97;99.11;94877.25;4939591;28;20043;-75
2021/12/09 08:37:59;;;;;;;10.40;8.43;;;3.20;83.70;;;0.95;99.08;94879.22;4955232;28;20474;-75
2021/12/09 08:40:25;;;;;;;10.18;8.25;;;3.10;83.80;;;0.97;98.21;94885.03;4951677;28;20040;-76
2021/12/09 08:42:56;;;;;;;11.20;8.82;;;3.10;83.90;;;0.96;98.78;94891.19;4944679;28;20047;-76
2021/12/09 08:45:22;;;;;;;10.10;8.20;;;3.10;84.10;;;0.97;99.11;94881.63;4970539;28;20113;-77
2021/12/09 08:47:50;;;;;;;10.23;7.93;;;3.20;83.70;;;1.00;99.10;94882.13;4939300;28;20030;-76
2021/12/09 08:50:22;;;;;;;9.93;7.75;;;3.20;83.80;;;1.01;98.38;94888.91;4988307;28;20038;-76
2021/12/09 08:53:03;;;;;;;;;;;;;;;;;;;;;
2021/12/09 08:55:31;;;;;;;12.13;9.65;;;3.10;84.00;;;0.96;98.51;94883.41;4956161;28;20049;-76
2021/12/09 08:57:57;;;;;;;11.70;10.05;;;3.10;84.00;;;0.99;99.00;94890.84;4954940;28;20043;-76
2021/12/09 09:00:26;;;;;;;15.57;12.40;;;3.10;83.90;;;1.02;98.95;94905.25;4954619;28;20586;-75
2021/12/09 09:02:52;;;;;;;14.65;12.38;;;3.10;83.90;;;1.03;98.83;94907.69;4969801;28;20384;-75
2021/12/09 09:05:18;;;;;;;11.15;9.27;;;3.20;83.90;;;1.03;98.22;94907.69;4970300;28;20050;-76
2021/12/09 09:07:45;;;;;;;11.43;8.45;;;3.20;83.80;;;1.04;98.74;94906.72;4973110;28;20086;-76
2021/12/09 09:10:11;;;;;;;9.30;7.57;;;3.20;83.60;;;1.04;98.60;94909.31;4941750;28;20042;-76
2021/12/09 09:12:37;;;;;;;10.52;8.05;;;3.30;83.50;;;1.06;98.87;94907.38;4957611;28;20125;-76
2021/12/09 09:15:07;;;;;;;10.00;7.85;;;3.20;83.50;;;1.08;99.11;94910.59;4957397;28;20117;-76
2021/12/09 09:17:33;;;;;;;12.70;8.80;;;3.30;83.50;;;1.08;98.17;94910.59;4990524;28;20061;-76
2021/12/09 09:19:58;;;;;;;8.65;7.38;;;3.20;83.40;;;1.10;98.55;94913.03;4976516;28;20506;-76
2021/12/09 09:22:24;;;;;;;8.90;7.60;;;3.30;83.50;;;1.11;98.68;94919.81;4993407;28;20077;-76
2021/12/09 09:24:50;;;;;;;9.77;7.63;;;3.40;83.40;;;1.13;98.31;94923.91;4959438;28;20169;-76
2021/12/09 09:27:16;;;;;;;8.57;6.97;;;3.50;83.20;;;1.14;98.51;94930.69;4960168;28;20069;-77
2021/12/09 09:29:42;;;;;;;9.70;6.68;;;3.40;83.30;;;1.16;98.54;94933.13;4974310;28;20062;-77
2021/12/09 09:32:11;;;;;;;9.30;6.93;;;3.40;83.10;;;1.16;98.27;94923.56;4989866;28;20089;-77
2021/12/09 09:34:37;;;;;;;8.57;6.70;;;3.50;83.20;;;1.21;97.98;94931.66;4954940;28;20090;-77
2021/12/09 09:37:04;;;;;;;8.65;6.80;;;3.40;83.10;;;1.21;98.22;94931.66;4954047;28;20047;-77
2021/12/09 09:39:31;;;;;;;8.93;7.22;;;3.40;83.20;;;1.23;98.42;94934.91;4970316;28;20080;-78
2021/12/09 09:44:45;;;;;;;12.02;8.38;;;3.40;83.40;;;1.22;97.92;94922.13;4975695;28;20030;-76
2021/12/09 09:47:11;;;;;;;10.25;8.18;;;3.40;83.40;;;1.22;98.01;94922.94;4928205;28;20443;-76
2021/12/09 09:49:37;;;;;;;10.85;8.60;;;3.40;83.40;;;1.24;98.37;94920.19;4934748;28;20031;-77
2021/12/09 09:52:05;;;;;;;13.30;9.02;;;3.30;83.60;;;1.23;98.17;94919.38;4918984;29;20047;-76
2021/12/09 09:54:31;;;;;;;12.20;8.80;;;3.20;83.70;;;1.23;98.33;94927.13;4950531;28;20039;-76
2021/12/09 09:56:57;;;;;;;11.07;9.10;;;3.20;84.00;;;1.25;97.71;94916.63;4950441;28;20090;-75
2021/12/09 09:59:22;;;;;;;15.23;9.50;;;3.40;83.70;;;1.28;97.88;94916.28;4950700;28;20051;-76
2021/12/09 10:01:52;;;;;;;13.93;9.40;;;3.40;83.40;;;1.29;97.98;94917.09;4977520;28;20525;-76
2021/12/09 10:04:31;;;;;;;14.02;9.80;;;3.40;83.40;;;1.31;98.29;94925.53;4970073;28;20042;-76
2021/12/09 10:06:57;;;;;;;11.95;8.70;;;3.50;83.80;;;1.33;97.82;94923.56;4981713;28;20084;-76
2021/12/09 10:09:23;;;;;;;13.75;9.20;;;3.50;83.50;;;1.35;97.72;94926.81;4992958;28;20118;-77
2021/12/09 10:11:49;;;;;;;13.18;9.68;;;3.50;83.50;;;1.36;97.93;94923.25;4960839;28;20449;-77
2021/12/09 10:14:24;;;;;;;13.48;9.70;;;3.50;83.50;;;1.36;97.90;94928.44;4960396;28;20580;-76
2021/12/09 10:17:15;;;;;;;13.13;9.35;;;3.40;83.90;;;1.40;97.92;94932.34;4942467;28;20070;-76
2021/12/09 10:19:55;;;;;;;12.80;9.80;;;3.50;83.80;;;1.44;98.16;94925.84;4973482;28;20031;-78
2021/12/09 10:22:28;;;;;;;14.25;10.70;;;3.60;83.40;;;1.45;98.20;94928.28;4973439;28;20636;-77
2021/12/09 10:24:55;;;;;;;17.55;13.40;;;3.60;84.20;;;1.48;98.01;94920.19;4940896;28;20031;-76
2021/12/09 10:27:31;;;;;;;20.00;14.55;;;3.60;84.00;;;1.53;98.19;94936.06;4957659;28;20057;-76
2021/12/09 10:30:20;;;;;;;21.70;15.45;;;3.60;84.10;;;1.58;98.68;94932.97;4962885;28;20035;-78
2021/12/09 10:32:46;;;;;;;18.25;13.07;;;3.80;83.80;;;1.62;98.20;94934.28;4969176;28;20463;-76